Pagina principale
METAR-TAF:

METAR-TAF

Aeroporti :

Aeroporto di Bucarest-Henri Coandă

Bucarest, Romania

latitudine: 44-33N, longitudine: 026-06E, altezza: 95 m

Osservazione

Il bollettino è stato emesso 19 minuti fa, alle 02:00 UTC
Vento 9 kt da est/nord-est
Temperature 21°C
Umidità 49%
Pressione 1020 hPa
Visibilità 10 km o più
nessuna nube inferiore a 1500 m e nessun cumulonembo

METAR: LROP 210200Z 07009KT CAVOK 21/10 Q1020 NOSIG

Ora: 05:19 (02:19 UTC)

Previsione

Il bollettino è stato emesso 3 ore e 19 minuti fa, alle 23:00 UTC
Previsione valida dal 21 alle 00 UTC al 22 alle 00 UTC
Vento 8 kt da est/nord-est
Visibilità 10 km o più
nessuna nube inferiore a 1500 m e nessun cumulonembo

TAF: LROP 202300Z 2100/2200 07008KT CAVOK

Osservazioni e previsioni meteorologiche di più di 4000 aeroporti (messaggi METAR e TAF).

Le stazioni disponibili sono rappresentate dai dischi gialli e rossi sulla carta.

Puntare il mouse per vedere il nome della stazione.

Clicca sopra per visualizzare le osservazioni e previsioni meteorologiche.

Per cambiare la mappa : fare clic sui pulsanti verdi con una croce nera per ingrandire, il pulsante verde con un trattino per diminuire, o sulla freccia verde per le mappe adiacenti.


METAR-TAF: